Time;durP1;ratioP1;P1;durP2;ratioP2;P2;SDS_P1;SDS_P2;PMS_P1;PMS_P2;Temp;Humidity;BMP_temperature;BMP_pressure;BME280_temperature;BME280_humidity;BME280_pressure;Samples;Min_cycle;Max_cycle;Signal;HPM_P1;HPM_P2
2024/02/13 00:02:02;;;;;;;10.18;5.00;;;;;;;1.01;100.00;68494.44;5070360;28;20079;-59
2024/02/13 00:04:32;;;;;;;11.35;4.60;;;;;;;1.00;100.00;68490.16;5071279;28;20044;-59
2024/02/13 00:07:00;;;;;;;10.48;4.47;;;;;;;0.97;100.00;68486.69;5072947;28;20450;-58
2024/02/13 00:09:28;;;;;;;10.13;4.22;;;;;;;0.95;100.00;68482.34;5071015;28;20056;-58
2024/02/13 00:12:00;;;;;;;13.23;4.65;;;;;;;0.93;100.00;68484.63;5070679;28;20562;-58
2024/02/13 00:14:30;;;;;;;14.15;5.45;;;;;;;0.92;100.00;68481.44;5071095;28;20044;-58
2024/02/13 00:16:59;;;;;;;12.55;4.90;;;;;;;0.90;100.00;68478.56;5072885;28;20436;-59
2024/02/13 00:19:27;;;;;;;12.68;5.00;;;;;;;0.89;100.00;68477.41;5073169;28;20101;-59
2024/02/13 00:21:55;;;;;;;12.20;4.70;;;;;;;0.89;100.00;68478.00;5071476;28;20048;-59
2024/02/13 00:24:24;;;;;;;12.60;4.45;;;;;;;0.89;100.00;68477.41;5070966;28;20063;-58
2024/02/13 00:26:52;;;;;;;9.90;4.60;;;;;;;0.87;100.00;68477.66;5069873;28;20047;-59
2024/02/13 00:29:20;;;;;;;10.95;4.97;;;;;;;0.86;100.00;68473.94;5070800;28;20606;-59
2024/02/13 00:31:50;;;;;;;13.45;5.10;;;;;;;0.83;100.00;68476.16;5071576;28;20594;-59
2024/02/13 00:34:21;;;;;;;10.07;5.22;;;;;;;0.81;100.00;68471.28;5073028;28;20048;-58
2024/02/13 00:36:50;;;;;;;11.00;5.10;;;;;;;0.80;100.00;68465.56;5072635;28;20040;-59
2024/02/13 00:39:19;;;;;;;14.35;5.28;;;;;;;0.80;100.00;68467.56;5071432;28;20052;-58
2024/02/13 00:41:47;;;;;;;12.52;5.10;;;;;;;0.77;100.00;68466.66;5070720;28;20491;-59
2024/02/13 00:44:16;;;;;;;10.45;5.15;;;;;;;0.76;100.00;68463.50;5071269;28;20036;-58
2024/02/13 00:46:45;;;;;;;9.85;4.78;;;;;;;0.74;100.00;68461.19;5071083;28;20523;-59
2024/02/13 00:49:14;;;;;;;12.32;5.80;;;;;;;0.73;100.00;68460.03;5072617;28;20078;-57
2024/02/13 00:51:42;;;;;;;12.80;4.95;;;;;;;0.71;100.00;68459.72;5071936;28;20535;-58
2024/02/13 00:54:13;;;;;;;14.65;5.38;;;;;;;0.71;100.00;68460.31;5070679;28;20053;-58
2024/02/13 00:56:42;;;;;;;13.48;6.22;;;;;;;0.69;100.00;68457.97;5070521;28;20037;-58
2024/02/13 00:59:10;;;;;;;14.07;6.10;;;;;;;0.68;100.00;68454.25;5072639;28;20040;-59
2024/02/13 01:01:39;;;;;;;16.00;6.65;;;;;;;0.67;100.00;68455.66;5074209;28;20094;-58
2024/02/13 01:04:07;;;;;;;13.73;6.10;;;;;;;0.67;100.00;68450.53;5076557;28;20423;-58
2024/02/13 01:06:36;;;;;;;11.63;7.15;;;;;;;0.64;100.00;68455.34;5076676;28;20091;-58
2024/02/13 01:09:05;;;;;;;14.68;6.88;;;;;;;0.63;100.00;68448.47;5075092;28;20388;-59
2024/02/13 01:11:35;;;;;;;12.43;6.65;;;;;;;0.61;100.00;68446.72;5074315;28;20032;-58
2024/02/13 01:14:04;;;;;;;14.43;6.85;;;;;;;0.61;100.00;68446.16;5075139;28;20044;-58
2024/02/13 01:16:32;;;;;;;18.45;8.85;;;;;;;0.61;100.00;68446.72;5074407;28;20578;-60
2024/02/13 01:19:00;;;;;;;15.93;8.80;;;;;;;0.62;100.00;68447.88;5076297;28;20460;-59
2024/02/13 01:21:30;;;;;;;16.98;9.20;;;;;;;0.62;100.00;68447.88;5076585;28;20044;-59
2024/02/13 01:24:00;;;;;;;15.70;8.90;;;;;;;0.60;100.00;68447.56;5076279;28;20052;-59
2024/02/13 01:26:28;;;;;;;15.35;9.02;;;;;;;0.60;100.00;68448.16;5076515;28;20044;-58
2024/02/13 01:28:57;;;;;;;16.65;10.20;;;;;;;0.60;100.00;68447.56;5076404;28;20064;-58
2024/02/13 01:31:25;;;;;;;15.57;11.05;;;;;;;0.60;100.00;68447.56;5075147;28;20047;-58
2024/02/13 01:33:54;;;;;;;24.58;12.77;;;;;;;0.60;100.00;68447.56;5073406;28;20051;-58
2024/02/13 01:36:22;;;;;;;23.38;13.30;;;;;;;0.68;100.00;68456.81;5074285;28;20118;-59
2024/02/13 01:38:50;;;;;;;24.88;14.43;;;;;;;0.72;100.00;68458.88;5075727;28;20048;-58
2024/02/13 01:41:20;;;;;;;23.42;15.23;;;;;;;0.75;100.00;68457.22;5074090;28;20514;-59
2024/02/13 01:43:49;;;;;;;24.67;14.45;;;;;;;0.76;100.00;68465.50;5075465;28;20053;-59
2024/02/13 01:46:19;;;;;;;28.92;15.65;;;;;;;0.78;100.00;68465.81;5075843;28;20455;-59
2024/02/13 01:48:48;;;;;;;23.05;15.32;;;;;;;0.77;100.00;68462.09;5075301;28;20048;-58
2024/02/13 01:51:17;;;;;;;25.55;16.40;;;;;;;0.75;100.00;68464.94;5075502;28;20048;-59
2024/02/13 01:53:45;;;;;;;23.95;15.13;;;;;;;0.75;100.00;68462.38;5075647;28;20050;-59
2024/02/13 01:56:17;;;;;;;24.17;15.90;;;;;;;0.76;100.00;68468.63;5075878;28;20415;-59
2024/02/13 01:58:47;;;;;;;26.23;16.77;;;;;;;0.76;100.00;68462.94;5073626;28;20393;-59
2024/02/13 02:01:15;;;;;;;23.85;16.63;;;;;;;0.77;100.00;68466.66;5074430;28;20064;-59
2024/02/13 02:03:44;;;;;;;25.08;16.50;;;;;;;0.75;100.00;68467.50;5074087;28;20135;-59
2024/02/13 02:06:13;;;;;;;25.65;16.73;;;;;;;0.75;100.00;68462.38;5074131;28;20063;-58
2024/02/13 02:08:41;;;;;;;23.75;16.20;;;;;;;0.75;100.00;68461.78;5074679;28;20040;-59
2024/02/13 02:11:10;;;;;;;25.10;16.67;;;;;;;0.76;100.00;68462.94;5075491;28;20517;-58
2024/02/13 02:13:39;;;;;;;27.60;17.23;;;;;;;0.75;100.00;68464.94;5074422;28;20139;-58
2024/02/13 02:16:09;;;;;;;29.75;17.90;;;;;;;0.75;100.00;68464.94;5075528;28;20510;-58
2024/02/13 02:18:37;;;;;;;23.88;16.50;;;;;;;0.75;100.00;68464.94;5075411;28;20032;-59
2024/02/13 02:21:06;;;;;;;27.95;17.80;;;;;;;0.76;100.00;68463.50;5073906;28;20059;-59
2024/02/13 02:23:35;;;;;;;26.90;18.13;;;;;;;0.78;100.00;68465.81;5074380;28;20170;-59
2024/02/13 02:26:06;;;;;;;28.10;17.52;;;;;;;0.77;100.00;68464.66;5073379;28;20045;-59
2024/02/13 02:28:35;;;;;;;26.33;18.65;;;;;;;0.78;100.00;68463.25;5075191;28;20051;-58
2024/02/13 02:31:04;;;;;;;30.13;18.10;;;;;;;0.77;100.00;68464.66;5074857;28;20048;-58
2024/02/13 02:33:32;;;;;;;27.80;18.48;;;;;;;0.75;100.00;68462.38;5073762;28;20048;-59
2024/02/13 02:36:00;;;;;;;28.17;18.13;;;;;;;0.74;100.00;68460.63;5073607;28;20399;-58
2024/02/13 02:38:29;;;;;;;26.55;18.02;;;;;;;0.73;100.00;68462.03;5074766;28;20064;-59
2024/02/13 02:40:59;;;;;;;28.63;18.55;;;;;;;0.73;100.00;68459.47;5074892;28;20041;-59
2024/02/13 02:43:29;;;;;;;26.58;17.77;;;;;;;0.73;100.00;68457.47;5074597;28;20504;-58
2024/02/13 02:45:58;;;;;;;24.85;16.95;;;;;;;0.73;100.00;68459.47;5074021;28;20500;-58
2024/02/13 02:48:26;;;;;;;24.35;17.23;;;;;;;0.73;100.00;68460.03;5073302;28;20412;-59
2024/02/13 02:50:55;;;;;;;28.20;17.65;;;;;;;0.75;100.00;68462.38;5074115;28;20053;-59
2024/02/13 02:53:24;;;;;;;27.85;19.20;;;;;;;0.74;100.00;68463.19;5073183;28;20064;-59
2024/02/13 02:55:55;;;;;;;27.27;18.20;;;;;;;0.76;100.00;68460.94;5073069;28;20500;-59
2024/02/13 02:58:24;;;;;;;30.92;18.42;;;;;;;0.79;100.00;68463.84;5074118;28;20042;-58
2024/02/13 03:00:54;;;;;;;28.25;17.60;;;;;;;0.80;100.00;68467.56;5073000;28;20055;-59
2024/02/13 03:03:22;;;;;;;28.25;18.15;;;;;;;0.82;100.00;68475.59;5072970;28;20514;-59
2024/02/13 03:05:51;;;;;;;27.08;17.25;;;;;;;0.90;100.00;68481.13;5071468;28;20106;-59
2024/02/13 03:08:20;;;;;;;26.15;17.98;;;;;;;0.90;100.00;68478.56;5072670;28;20040;-59
2024/02/13 03:10:49;;;;;;;28.15;18.38;;;;;;;0.89;100.00;68478.00;5073962;28;20047;-59
2024/02/13 03:13:17;;;;;;;27.30;17.70;;;;;;;0.94;100.00;68488.31;5074037;28;20484;-59
2024/02/13 03:15:46;;;;;;;29.30;18.20;;;;;;;0.95;100.00;68484.34;5074173;28;20048;-58
2024/02/13 03:18:15;;;;;;;31.52;19.80;;;;;;;0.99;100.00;68492.13;5074211;28;20044;-59
2024/02/13 03:20:44;;;;;;;27.17;18.17;;;;;;;0.98;100.00;68487.81;5072929;28;20102;-59
2024/02/13 03:23:16;;;;;;;28.80;18.35;;;;;;;1.02;100.00;68497.59;5073216;28;20049;-59
2024/02/13 03:25:44;;;;;;;28.63;18.10;;;;;;;1.04;100.00;68494.19;5073035;28;20067;-59
2024/02/13 03:28:13;;;;;;;26.75;18.75;;;;;;;1.06;100.00;68493.94;5073074;28;20066;-60
2024/02/13 03:30:41;;;;;;;30.45;19.35;;;;;;;1.09;100.00;68499.97;5072218;28;20507;-58
2024/02/13 03:33:09;;;;;;;29.83;19.17;;;;;;;1.11;100.00;68508.00;5073140;28;20504;-58
2024/02/13 03:35:38;;;;;;;28.88;18.80;;;;;;;1.13;100.00;68507.19;5073503;28;20048;-60
2024/02/13 03:38:07;;;;;;;26.52;19.08;;;;;;;1.16;100.00;68513.25;5072125;28;20068;-59
2024/02/13 03:40:35;;;;;;;30.35;19.40;;;;;;;1.13;100.00;68505.19;5073065;28;20049;-58
2024/02/13 03:43:04;;;;;;;32.42;19.85;;;;;;;1.16;100.00;68511.25;5073674;28;20044;-59
2024/02/13 03:45:32;;;;;;;30.48;19.30;;;;;;;1.17;100.00;68511.81;5073677;28;20123;-59
2024/02/13 03:48:00;;;;;;;26.88;19.17;;;;;;;1.17;100.00;68512.41;5073546;28;20045;-58
2024/02/13 03:50:29;;;;;;;29.85;19.55;;;;;;;1.17;100.00;68511.81;5070406;28;20056;-58
2024/02/13 03:52:58;;;;;;;27.50;18.42;;;;;;;1.18;100.00;68510.97;5072476;28;20068;-58
2024/02/13 03:55:29;;;;;;;30.52;20.67;;;;;;;1.18;100.00;68507.84;5073560;28;20036;-59
2024/02/13 03:57:57;;;;;;;27.67;18.40;;;;;;;1.18;100.00;68508.41;5071758;28;20079;-59
2024/02/13 04:00:26;;;;;;;25.42;17.98;;;;;;;1.17;100.00;68509.25;5071836;28;20052;-59
2024/02/13 04:02:56;;;;;;;26.98;19.02;;;;;;;1.18;100.00;68510.97;5073604;28;20051;-59
2024/02/13 04:05:25;;;;;;;30.38;18.40;;;;;;;1.16;100.00;68513.81;5073350;28;20045;-59
2024/02/13 04:07:54;;;;;;;30.67;18.95;;;;;;;1.17;100.00;68517.53;5073130;28;20045;-59
2024/02/13 04:10:24;;;;;;;25.70;17.63;;;;;;;1.15;100.00;68510.06;5071173;28;20044;-59
2024/02/13 04:12:53;;;;;;;31.85;19.10;;;;;;;1.18;100.00;68510.97;5071986;28;20511;-59
2024/02/13 04:15:21;;;;;;;25.73;18.13;;;;;;;1.18;100.00;68512.97;5073228;28;20052;-59
2024/02/13 04:17:50;;;;;;;29.70;19.00;;;;;;;1.17;100.00;68509.84;5073059;28;20055;-60
2024/02/13 04:20:18;;;;;;;28.35;17.20;;;;;;;1.18;100.00;68513.53;5071836;28;20046;-59
2024/02/13 04:22:47;;;;;;;26.98;18.15;;;;;;;1.18;100.00;68513.53;5071806;28;20040;-58
2024/02/13 04:25:15;;;;;;;26.70;18.05;;;;;;;1.19;100.00;68511.56;5070571;28;20047;-59
2024/02/13 04:27:46;;;;;;;29.67;17.88;;;;;;;1.18;100.00;68510.97;5072449;28;20048;-59
2024/02/13 04:30:14;;;;;;;26.98;19.08;;;;;;;1.18;100.00;68513.53;5071236;28;20044;-59
2024/02/13 04:32:42;;;;;;;26.05;16.73;;;;;;;1.20;100.00;68517.28;5072060;28;20040;-58
2024/02/13 04:35:10;;;;;;;30.48;18.23;;;;;;;1.22;100.00;68514.47;5070605;28;20044;-59
2024/02/13 04:37:39;;;;;;;28.63;17.70;;;;;;;1.21;100.00;68515.88;5070879;28;20058;-59
2024/02/13 04:40:08;;;;;;;27.45;17.80;;;;;;;1.18;100.00;68510.97;5070751;28;20468;-60
2024/02/13 04:42:39;;;;;;;26.33;17.27;;;;;;;1.18;100.00;68512.97;5071627;28;20102;-58
2024/02/13 04:45:09;;;;;;;27.33;17.40;;;;;;;1.16;100.00;68508.66;5072748;28;20053;-50
2024/02/13 04:47:38;;;;;;;27.20;17.85;;;;;;;1.21;100.00;68513.31;5072460;28;20048;-51
2024/02/13 04:50:08;;;;;;;24.08;17.25;;;;;;;1.22;100.00;68515.03;5072186;28;20059;-49
2024/02/13 04:52:39;;;;;;;27.85;17.73;;;;;;;1.23;100.00;68520.75;5072435;28;20174;-49
2024/02/13 04:55:07;;;;;;;25.60;16.20;;;;;;;1.22;100.00;68517.59;5072048;28;20047;-51
2024/02/13 04:57:35;;;;;;;26.60;17.20;;;;;;;1.22;100.00;68515.03;5072674;28;20446;-52
2024/02/13 05:00:13;;;;;;;28.85;17.58;;;;;;;1.22;100.00;68514.47;5072506;28;20029;-59
2024/02/13 05:02:46;;;;;;;24.85;17.60;;;;;;;1.22;100.00;68514.47;5071396;28;20054;-60
2024/02/13 05:08:06;;;;;;;25.23;16.27;;;;;;;1.23;100.00;68515.59;5055126;28;20071;-59
2024/02/13 05:10:34;;;;;;;23.60;16.58;;;;;;;1.21;100.00;68513.31;5072689;28;20431;-59
2024/02/13 05:13:03;;;;;;;27.63;17.17;;;;;;;1.21;100.00;68513.88;5071095;28;20040;-59
2024/02/13 05:15:31;;;;;;;26.92;16.25;;;;;;;1.22;100.00;68517.59;5070908;28;20052;-59
2024/02/13 05:18:01;;;;;;;26.77;16.88;;;;;;;1.23;100.00;68518.19;5071090;28;20052;-58
2024/02/13 05:20:29;;;;;;;31.30;17.15;;;;;;;1.21;100.00;68510.72;5071366;28;20079;-51
2024/02/13 05:22:58;;;;;;;27.83;17.55;;;;;;;1.22;100.00;68514.47;5069213;28;20467;-51
2024/02/13 05:25:27;;;;;;;26.67;16.33;;;;;;;1.19;100.00;68511.56;5067906;28;20376;-50
2024/02/13 05:27:56;;;;;;;31.63;16.45;;;;;;;1.20;100.00;68509.56;5069599;28;20047;-49
2024/02/13 05:30:24;;;;;;;25.00;15.95;;;;;;;1.20;100.00;68509.56;5072100;28;20091;-50
2024/02/13 05:32:54;;;;;;;27.23;15.85;;;;;;;1.19;100.00;68514.13;5072171;28;20488;-46
2024/02/13 05:35:24;;;;;;;26.10;16.27;;;;;;;1.23;100.00;68511.06;5072325;28;20044;-48
2024/02/13 05:37:52;;;;;;;25.08;15.52;;;;;;;1.28;100.00;68521.41;5072034;28;20407;-48
2024/02/13 05:40:21;;;;;;;29.48;16.35;;;;;;;1.29;100.00;68520.00;5071195;28;20128;-50
2024/02/13 05:42:54;;;;;;;27.08;15.52;;;;;;;1.26;100.00;68522.25;5069107;28;20406;-48
2024/02/13 05:45:24;;;;;;;25.05;15.30;;;;;;;1.29;100.00;68525.13;5070112;28;20044;-50
2024/02/13 05:47:53;;;;;;;24.23;15.60;;;;;;;1.29;100.00;68525.13;5072545;28;20044;-49
2024/02/13 05:50:22;;;;;;;26.35;15.82;;;;;;;1.28;100.00;68522.00;5075248;28;20491;-49
2024/02/13 05:52:52;;;;;;;22.02;14.65;;;;;;;1.30;100.00;68526.88;5075514;28;20045;-51
2024/02/13 05:55:21;;;;;;;25.35;14.68;;;;;;;1.27;100.00;68520.84;5074302;28;20048;-49
2024/02/13 05:57:51;;;;;;;25.85;14.68;;;;;;;1.25;100.00;68517.94;5075396;28;20557;-48
2024/02/13 06:00:24;;;;;;;24.40;14.05;;;;;;;1.25;100.00;68517.94;5074806;28;20132;-52
2024/02/13 06:02:54;;;;;;;22.98;14.23;;;;;;;1.26;100.00;68519.66;5075313;28;20044;-49
2024/02/13 06:05:23;;;;;;;23.90;14.27;;;;;;;1.25;100.00;68520.50;5074296;28;20499;-50
2024/02/13 06:07:53;;;;;;;22.55;14.25;;;;;;;1.25;100.00;68515.38;5075273;28;20487;-52
2024/02/13 06:10:21;;;;;;;22.67;14.02;;;;;;;1.22;100.00;68517.03;5075360;28;20050;-50
2024/02/13 06:12:49;;;;;;;26.15;14.30;;;;;;;1.21;100.00;68508.16;5075113;28;20535;-50
2024/02/13 06:15:17;;;;;;;24.17;13.57;;;;;;;1.20;100.00;68512.72;5075035;28;20062;-49
2024/02/13 06:17:45;;;;;;;24.55;13.63;;;;;;;1.19;100.00;68514.13;5075083;28;20094;-48
2024/02/13 06:20:14;;;;;;;28.33;13.65;;;;;;;1.24;100.00;68516.78;5075028;28;20032;-49
2024/02/13 06:22:43;;;;;;;23.63;13.85;;;;;;;1.25;100.00;68520.50;5074972;28;20131;-48
2024/02/13 06:25:17;;;;;;;22.13;13.75;;;;;;;1.25;100.00;68518.50;5074893;28;20061;-47
2024/02/13 06:27:46;;;;;;;26.92;14.38;;;;;;;1.28;100.00;68527.13;5072239;28;20075;-52
2024/02/13 06:30:15;;;;;;;24.30;14.07;;;;;;;1.30;100.00;68521.16;5071916;28;20098;-47
2024/02/13 06:32:43;;;;;;;22.05;14.43;;;;;;;1.28;100.00;68522.00;5075177;28;20446;-49
2024/02/13 06:35:15;;;;;;;21.42;13.30;;;;;;;1.29;100.00;68523.13;5074794;28;20052;-47
2024/02/13 06:37:43;;;;;;;24.85;14.55;;;;;;;1.33;100.00;68530.34;5073157;28;20063;-47
2024/02/13 06:40:14;;;;;;;23.33;13.82;;;;;;;1.33;100.00;68525.19;5070037;28;20086;-47
2024/02/13 06:42:42;;;;;;;23.98;14.35;;;;;;;1.33;100.00;68530.34;5070693;28;20113;-47
2024/02/13 06:45:12;;;;;;;24.33;13.35;;;;;;;1.33;100.00;68527.19;5074732;28;20045;-61
2024/02/13 06:47:40;;;;;;;22.40;13.65;;;;;;;1.34;100.00;68528.94;5074779;28;20041;-48
2024/02/13 06:50:11;;;;;;;23.77;13.32;;;;;;;1.34;100.00;68533.50;5074277;28;20044;-48
2024/02/13 06:52:41;;;;;;;30.08;13.57;;;;;;;1.38;100.00;68533.00;5073192;28;20044;-59
2024/02/13 06:55:10;;;;;;;23.88;13.98;;;;;;;1.40;100.00;68532.72;5070899;28;20102;-59
2024/02/13 06:57:40;;;;;;;24.17;13.10;;;;;;;1.38;100.00;68538.13;5074318;28;20036;-48
2024/02/13 07:00:11;;;;;;;20.08;12.85;;;;;;;1.39;100.00;68531.00;5074010;28;20044;-47
2024/02/13 07:02:39;;;;;;;22.48;11.95;;;;;;;1.39;100.00;68536.72;5074552;28;20044;-60
2024/02/13 07:05:09;;;;;;;22.27;11.85;;;;;;;1.42;100.00;68537.03;5074453;28;20048;-60
2024/02/13 07:07:38;;;;;;;22.90;11.68;;;;;;;1.47;100.00;68540.84;5074116;28;20040;-51
2024/02/13 07:10:15;;;;;;;27.52;12.80;;;;;;;1.51;100.00;68550.63;5073525;28;20415;-60
2024/02/13 07:12:46;;;;;;;26.15;12.23;;;;;;;1.58;100.00;68555.00;5072611;28;20468;-60
2024/02/13 07:15:14;;;;;;;20.40;11.13;;;;;;;1.56;100.00;68553.25;5072205;28;20083;-47
2024/02/13 07:17:43;;;;;;;19.58;11.02;;;;;;;1.57;100.00;68556.41;5073329;28;20056;-48
2024/02/13 07:20:27;;;;;;;22.38;11.00;;;;;;;1.57;100.00;68556.41;5072727;28;20066;-60
2024/02/13 07:22:58;;;;;;;18.75;10.38;;;;;;;1.56;100.00;68552.69;5073241;28;20045;-48
2024/02/13 07:25:26;;;;;;;18.05;9.68;;;;;;;1.56;100.00;68553.25;5069115;28;20036;-59
2024/02/13 07:27:56;;;;;;;16.83;9.55;;;;;;;1.58;100.00;68553.00;5073454;28;20500;-60
2024/02/13 07:30:25;;;;;;;22.48;10.60;;;;;;;1.62;100.00;68560.22;5074218;28;20028;-60
2024/02/13 07:32:55;;;;;;;18.42;9.10;;;;;;;1.67;100.00;68565.41;5073926;28;20041;-60
2024/02/13 07:35:24;;;;;;;22.67;10.23;;;;;;;1.73;100.00;68566.66;5073828;28;20476;-59
2024/02/13 07:37:53;;;;;;;14.57;8.80;;;;;;;1.76;100.00;68578.44;5073084;28;20113;-59
2024/02/13 07:40:21;;;;;;;16.70;9.15;;;;;;;1.77;100.00;68579.59;5071035;28;20094;-59
2024/02/13 07:42:49;;;;;;;20.98;9.52;;;;;;;1.81;100.00;68581.66;5073252;28;20067;-59
2024/02/13 07:45:18;;;;;;;17.55;9.27;;;;;;;1.86;100.00;68590.00;5071687;28;20055;-59
2024/02/13 07:47:47;;;;;;;20.88;9.32;;;;;;;1.93;100.00;68596.97;5072309;28;20044;-60
2024/02/13 07:50:15;;;;;;;18.45;8.60;;;;;;;1.97;100.00;68599.59;5072374;28;20458;-59
2024/02/13 07:52:44;;;;;;;17.60;8.25;;;;;;;2.06;100.00;68608.88;5070393;28;20056;-59
2024/02/13 07:55:12;;;;;;;16.15;8.73;;;;;;;2.15;100.00;68617.28;5072708;28;20526;-60
2024/02/13 07:57:41;;;;;;;18.20;9.52;;;;;;;2.30;100.00;68636.09;5073578;28;20546;-59
2024/02/13 08:00:11;;;;;;;21.42;9.13;;;;;;;2.45;100.00;68653.50;5073088;28;20083;-59
2024/02/13 08:02:40;;;;;;;17.73;9.20;;;;;;;2.64;100.00;68674.38;5073300;28;20040;-60
2024/02/13 08:05:09;;;;;;;17.38;8.95;;;;;;;2.74;100.00;68685.97;5072935;28;20049;-59
2024/02/13 08:07:37;;;;;;;19.25;9.32;;;;;;;2.85;100.00;68700.72;5073380;28;20051;-59
2024/02/13 08:10:10;;;;;;;18.42;8.73;;;;;;;3.08;100.00;68728.81;5073141;28;20049;-59
2024/02/13 08:12:38;;;;;;;;;;;;;;;3.07;100.00;68720.50;5105871;28;20080;-58
2024/02/13 08:15:07;;;;;;;13.30;8.07;;;;;;;3.17;100.00;68734.66;5073272;28;19951;-59
2024/02/13 08:17:36;;;;;;;14.80;7.40;;;;;;;3.42;100.00;68759.34;5073308;28;20051;-59
2024/02/13 08:20:08;;;;;;;17.55;8.20;;;;;;;3.47;100.00;68770.31;5072971;28;20048;-58
2024/02/13 08:22:38;;;;;;;17.20;7.95;;;;;;;3.58;100.00;68779.94;5073373;28;20056;-60
2024/02/13 08:25:07;;;;;;;17.45;7.28;;;;;;;3.69;100.00;68795.25;5070512;28;20138;-59
2024/02/13 08:27:37;;;;;;;15.70;6.43;;;;;;;3.88;100.00;68816.75;5071789;28;20049;-59
2024/02/13 08:30:09;;;;;;;17.02;6.60;;;;;;;3.96;100.00;68823.44;5071703;28;20040;-59
2024/02/13 08:32:41;;;;;;;16.42;6.30;;;;;;;4.15;100.00;68844.91;5071057;28;20056;-58
2024/02/13 08:35:11;;;;;;;13.45;6.10;;;;;;;4.22;100.00;68855.63;5071576;28;20523;-59
2024/02/13 08:37:40;;;;;;;14.85;5.35;;;;;;;4.27;100.00;68857.69;5073280;28;20048;-59
2024/02/13 08:40:10;;;;;;;12.57;5.82;;;;;;;4.49;100.00;68882.66;5072398;28;20376;-59
2024/02/13 08:42:38;;;;;;;16.13;6.40;;;;;;;4.57;100.00;68892.53;5071630;28;20131;-59
2024/02/13 08:45:08;;;;;;;14.77;6.22;;;;;;;4.76;100.00;68913.44;5072598;28;20071;-59
2024/02/13 08:47:36;;;;;;;9.70;5.15;;;;;;;4.87;100.00;68925.66;5072943;28;20060;-58
2024/02/13 08:50:07;;;;;;;14.60;6.43;;;;;;;4.99;100.00;68939.00;5072666;28;20177;-60
2024/02/13 08:52:37;;;;;;;11.40;6.03;;;;;;;5.09;100.00;68950.63;5072193;28;20045;-60
2024/02/13 08:55:07;;;;;;;14.38;6.07;;;;;;;5.35;100.00;68979.66;5072292;28;20059;-59
2024/02/13 08:57:35;;;;;;;10.65;5.18;;;;;;;5.48;100.00;68994.19;5072463;28;20555;-49
2024/02/13 09:00:04;;;;;;;12.25;5.57;;;;;;;5.40;100.00;68982.91;5071908;28;20526;-52
2024/02/13 09:02:33;;;;;;;14.77;4.72;;;;;;;5.45;100.00;68991.28;5071760;28;20049;-51
2024/02/13 09:05:01;;;;;;;10.80;4.28;;;;;;;5.36;100.00;68978.81;5068269;28;20356;-50
2024/02/13 09:07:29;;;;;;;11.65;4.45;;;;;;;5.19;100.00;68962.22;5070665;28;20044;-52
2024/02/13 09:09:59;;;;;;;14.38;5.82;;;;;;;4.99;100.00;68942.16;5072464;28;20048;-51
2024/02/13 09:12:27;;;;;;;13.60;4.88;;;;;;;4.94;100.00;68928.59;5072601;28;20045;-52
2024/02/13 09:14:58;;;;;;;12.95;4.97;;;;;;;4.97;100.00;68936.69;5072230;28;20037;-52
2024/02/13 09:17:26;;;;;;;14.32;6.35;;;;;;;5.04;100.00;68944.81;5069249;28;20049;-47
2024/02/13 09:19:55;;;;;;;12.77;5.22;;;;;;;5.25;100.00;68971.22;5070565;28;20044;-49
2024/02/13 09:22:23;;;;;;;12.55;4.80;;;;;;;5.32;100.00;68974.19;5072454;28;20438;-51
2024/02/13 09:24:53;;;;;;;12.07;4.68;;;;;;;5.46;100.00;68987.28;5071238;28;20041;-48
2024/02/13 09:27:26;;;;;;;12.38;4.88;;;;;;;5.53;100.00;69000.00;5072676;28;20137;-49
2024/02/13 09:29:55;;;;;;;13.52;5.05;;;;;;;5.62;100.00;69012.47;5073557;28;20053;-49
2024/02/13 09:32:24;;;;;;;11.20;4.63;;;;;;;5.71;100.00;69020.34;5075753;28;20075;-49
2024/02/13 09:34:52;;;;;;;13.65;5.25;;;;;;;5.81;100.00;69031.97;5075836;28;20041;-47
2024/02/13 09:37:20;;;;;;;13.38;5.18;;;;;;;5.90;100.00;69039.84;5075840;28;20037;-51
2024/02/13 09:39:51;;;;;;;9.02;4.25;;;;;;;5.99;100.00;69054.94;5071618;28;20511;-50
2024/02/13 09:42:20;;;;;;;13.27;4.75;;;;;;;6.04;100.00;69057.56;5071946;28;20043;-49
2024/02/13 09:44:49;;;;;;;12.82;4.53;;;;;;;6.08;100.00;69065.41;5073018;28;20044;-47
2024/02/13 09:47:17;;;;;;;14.50;5.28;;;;;;;6.15;100.00;69070.38;5072424;28;20056;-47
2024/02/13 09:49:47;;;;;;;11.18;4.03;;;;;;;6.24;100.00;69078.25;5074847;28;20400;-48
2024/02/13 09:52:17;;;;;;;13.82;4.35;;;;;;;6.31;100.00;69085.78;5075699;28;20040;-48
2024/02/13 09:54:47;;;;;;;11.85;3.85;;;;;;;6.29;100.00;69083.47;5075004;28;20079;-46
2024/02/13 09:57:17;;;;;;;11.68;4.35;;;;;;;6.33;100.00;69087.56;5071305;28;20059;-47
2024/02/13 09:59:45;;;;;;;12.80;4.22;;;;;;;6.32;100.00;69091.56;5072722;28;20044;-46
2024/02/13 10:02:17;;;;;;;11.35;4.25;;;;;;;6.39;100.00;69095.13;5074028;28;20040;-47
2024/02/13 10:04:45;;;;;;;12.20;3.57;;;;;;;6.44;100.00;69102.94;5072966;28;20755;-45
2024/02/13 10:07:14;;;;;;;13.68;3.70;;;;;;;6.43;100.00;69099.19;5072137;28;20465;-47
2024/02/13 10:09:44;;;;;;;11.10;3.80;;;;;;;6.43;100.00;69102.38;5075606;28;20079;-47
2024/02/13 10:12:14;;;;;;;12.30;4.20;;;;;;;6.45;100.00;69103.50;5075467;28;20042;-47
2024/02/13 10:14:42;;;;;;;11.23;3.75;;;;;;;6.43;100.00;69102.38;5075562;28;20047;-47
2024/02/13 10:17:11;;;;;;;10.25;3.30;;;;;;;6.46;100.00;69102.66;5072597;28;20044;-48
2024/02/13 10:19:41;;;;;;;12.80;3.80;;;;;;;6.48;100.00;69107.59;5072123;28;20147;-48
2024/02/13 10:22:10;;;;;;;12.05;3.95;;;;;;;6.53;100.00;69113.41;5073414;28;20052;-51
2024/02/13 10:24:39;;;;;;;12.23;4.05;;;;;;;6.65;100.00;69129.38;5072251;28;20136;-48
2024/02/13 10:27:09;;;;;;;10.77;3.53;;;;;;;6.81;100.00;69144.25;5071552;28;20479;-48
2024/02/13 10:29:43;;;;;;;11.02;3.83;;;;;;;6.96;100.00;69163.72;5072419;28;20056;-47
2024/02/13 10:32:11;;;;;;;11.57;3.70;;;;;;;7.18;100.00;69183.53;5074882;28;20049;-50
2024/02/13 10:34:41;;;;;;;12.77;3.92;;;;;;;7.40;100.00;69211.75;5074509;28;20495;-50
2024/02/13 10:37:10;;;;;;;10.68;3.40;;;;;;;7.55;100.00;69226.03;5074996;28;20044;-49
2024/02/13 10:39:44;;;;;;;10.85;3.55;;;;;;;7.82;100.00;69253.69;5074998;28;20036;-50
2024/02/13 10:42:16;;;;;;;11.27;3.97;;;;;;;7.90;100.00;69270.81;5072099;28;20094;-49
2024/02/13 10:44:49;;;;;;;13.67;3.57;;;;;;;8.03;100.00;69280.19;5072142;28;20105;-49
2024/02/13 10:47:20;;;;;;;9.45;3.28;;;;;;;8.22;100.00;69306.94;5073745;28;20503;-48
2024/02/13 10:49:53;;;;;;;9.80;3.20;;;;;;;8.38;100.00;69319.78;5071010;28;20522;-47
2024/02/13 10:52:24;;;;;;;11.45;3.47;;;;;;;8.49;100.00;69332.03;5073256;28;20446;-51
2024/02/13 10:54:53;;;;;;;9.65;2.97;;;;;;;8.66;100.00;69348.06;5074569;28;20131;-49
2024/02/13 10:57:23;;;;;;;13.10;3.20;;;;;;;8.80;100.00;69372.19;5074677;28;20048;-50
2024/02/13 10:59:54;;;;;;;10.65;3.58;;;;;;;8.75;100.00;69364.34;5074432;28;20047;-48
2024/02/13 11:02:22;;;;;;;12.35;3.58;;;;;;;9.07;100.00;69399.91;5074223;28;20041;-50
2024/02/13 11:04:53;;;;;;;11.15;3.00;;;;;;;9.26;100.00;69422.03;5074162;28;20036;-50
2024/02/13 11:07:21;;;;;;;12.38;3.03;;;;;;;9.27;100.00;69420.00;5073854;28;20438;-52
2024/02/13 11:09:49;;;;;;;7.03;2.60;;;;;;;9.14;100.00;69408.63;5072415;28;20135;-48
2024/02/13 11:12:18;;;;;;;13.10;3.20;;;;;;;9.56;100.00;69455.28;5070678;28;20047;-48
2024/02/13 11:14:48;;;;;;;13.20;3.20;;;;;;;9.89;100.00;69490.00;5070998;28;20245;-48
2024/02/13 11:17:17;;;;;;;8.98;2.72;;;;;;;9.94;100.00;69501.63;5070587;28;20059;-51
2024/02/13 11:19:48;;;;;;;10.13;3.20;;;;;;;10.10;100.00;69516.50;5070931;28;20054;-49
2024/02/13 11:22:34;;;;;;;7.55;2.63;;;;;;;10.32;100.00;69544.78;5069234;28;20143;-47
2024/02/13 11:25:08;;;;;;;11.18;2.72;;;;;;;10.39;100.00;69546.59;5072353;28;20049;-48
2024/02/13 11:27:40;;;;;;;9.43;3.05;;;;;;;10.51;100.00;69560.03;5071874;28;20067;-48
2024/02/13 11:30:09;;;;;;;8.18;2.70;;;;;;;10.64;100.00;69575.78;5069138;28;20135;-47
2024/02/13 11:32:38;;;;;;;6.82;2.65;;;;;;;10.78;100.00;69590.94;5068205;28;20131;-49
2024/02/13 11:35:11;;;;;;;7.93;2.78;;;;;;;11.03;100.00;69611.72;5071987;28;20063;-49